Aérodrome :
LOGIN :

S'inscrire | Disclaimer

   EN    FR    IT 

 










Légende :    VFR   VFR Marginal   IFR   IFR Intensif   IFR Très Intensif
Visi : 
Plafond : 
>= 8 km
>= 3000ft
5 à 8 km
1000 à 3000 ft
1500m à 5 km
500 à 1000 ft
800 à 1500m
200 à 500 ft
< 800m
< 200 ft
Symboles :   Orages  Brouillard  Fortes neiges  Fortes précipitations  Vent > 20 kt
SIGMETs :   Divers  Orages  Givrage  Turbulence  Onde Orograph.  Cendres Volcan.







- Altitude de l'aérodrome : 138 ft
- Code IATA : BIO


LEBB - Bilbao

DERNIER METAR :
  • 280030Z AUTO 14003KT 100V190 9999 SCT050 SCT067 05/03 Q1023

METARs EXPIRÉS :
  • 280000Z AUTO 10003KT 9999 SCT070 05/03 Q1023
  • 272330Z AUTO 12003KT 080V140 9999 NCD 05/03 Q1023
  • 272300Z AUTO VRB02KT 9999 FEW047 BKN058 BKN070 06/03 Q1023
  • 272230Z AUTO 11003KT 080V150 9999 SCT069 06/04 Q1023
  • 272200Z AUTO VRB02KT 9999 SCT048 06/03 Q1023
  • 272130Z VRB02KT 9999 SCT050 05/03 Q1023 NOSIG

TAF TAF LEBB
Valide du 28 à 00h jusqu'au 29 à 00h UTC


272300Z 2800/2824 33005KT 9999 SCT035 TX15/2815Z TN04/2806Z
PROB30
TEMPO 2812/2815 03010KT
Pas de NOTAMs connus pour ce terrain.



MET'MAP, la Météo Aéronautique d'un coup d'oeil ! - Copyright ORBIFLY Décembre 2007 - Disclaimer

ORBIFLY MET'MAP TEAM :

Programmation & Développement : Alexandra Zaïnal
Conception & Développement : Baudouin d'Aumeries
Co-Programmation & Développement : Marc-Olivier Méhu
Soutien technique & logistique : Manuel Goepfert

Contact : metmap@orbifly.com




SOURCES & CREDITS :

   NOAA